createdAt,value
2023-04-25T00:00:16.214Z,61631.69
2023-04-25T00:05:19.199Z,61627.47
2023-04-25T00:10:22.198Z,61609.56
2023-04-25T00:15:26.316Z,61599.44
2023-04-25T00:20:28.896Z,61622.28
2023-04-25T00:25:31.462Z,61580.41
2023-04-25T00:30:35.470Z,61565.44
2023-04-25T00:35:38.365Z,61539.91
2023-04-25T00:40:40.908Z,61495.03
2023-04-25T00:45:45.600Z,61481.75
2023-04-25T00:50:54.236Z,61463.09
2023-04-25T00:55:57.264Z,61442.47
2023-04-25T01:01:01.890Z,61466.19
2023-04-25T01:06:04.740Z,61490.59
2023-04-25T01:11:07.667Z,61488.94
2023-04-25T01:16:11.712Z,61500.97
2023-04-25T01:21:15.927Z,61473.34
2023-04-25T01:26:19.157Z,61499.25
2023-04-25T01:31:22.002Z,61505.63
2023-04-25T01:36:26.159Z,61539.81
2023-04-25T01:41:29.277Z,61509.53
2023-04-25T01:46:32.732Z,61526.13
2023-04-25T01:51:36.966Z,61506.59
2023-04-25T01:56:40.178Z,61509.19
2023-04-25T02:01:42.873Z,61532.56
2023-04-25T02:06:46.895Z,61532.56
2023-04-25T02:11:49.700Z,61541.69
2023-04-25T02:16:53.003Z,61535.19
2023-04-25T02:21:58.064Z,61495.84
2023-04-25T02:27:00.718Z,61511.84
2023-04-25T02:32:03.603Z,61512.03
2023-04-25T02:37:07.509Z,61578.88
2023-04-25T02:42:10.075Z,61549.25
2023-04-25T02:47:12.661Z,61530.91
2023-04-25T02:52:16.652Z,61555.06
2023-04-25T02:57:19.197Z,61565.78
2023-04-25T03:02:21.859Z,61504.69
2023-04-25T03:07:27.893Z,61482.13
2023-04-25T03:12:30.630Z,61457.25
2023-04-25T03:17:33.373Z,61455.34
2023-04-25T03:22:38.384Z,61465.91
2023-04-25T03:27:40.947Z,61501.59
2023-04-25T03:32:43.538Z,61503.34
2023-04-25T03:37:47.507Z,61485.88
2023-04-25T03:42:50.073Z,61485.88
2023-04-25T03:47:52.620Z,61477.16
2023-04-25T03:52:56.573Z,61477.81
2023-04-25T03:57:59.874Z,61487.22
2023-04-25T04:03:02.615Z,61483.34
2023-04-25T04:08:06.902Z,61512.34
2023-04-25T04:13:09.486Z,61494.91
2023-04-25T04:18:12.142Z,61524.78
2023-04-25T04:23:16.173Z,61510.91
2023-04-25T04:28:18.799Z,61490.28
2023-04-25T04:33:21.528Z,61507.34
2023-04-25T04:38:26.396Z,61505.34
2023-04-25T04:43:29.540Z,61503.88
2023-04-25T04:48:35.197Z,61492.66
2023-04-25T04:53:39.155Z,61560.28
2023-04-25T04:58:41.724Z,61488.03
2023-04-25T05:03:44.443Z,61592.94
2023-04-25T05:08:48.470Z,61499.66
2023-04-25T05:13:53.426Z,61528.66
2023-04-25T05:18:56.359Z,61529.97
2023-04-25T05:24:00.691Z,61539.50
2023-04-25T05:29:03.316Z,61567.72
2023-04-25T05:34:05.916Z,61598.03
2023-04-25T05:39:09.948Z,61568.22
2023-04-25T05:44:12.581Z,61587.06
2023-04-25T05:49:16.406Z,61557.66
2023-04-25T05:54:21.443Z,61618.25
2023-04-25T05:59:24.011Z,61617.59
2023-04-25T06:04:27.530Z,61618.97
2023-04-25T06:09:31.594Z,61649.03
2023-04-25T06:14:34.209Z,61621.47
2023-04-25T06:19:37.696Z,61643.63
2023-04-25T06:24:41.490Z,61620.53
2023-04-25T06:29:44.054Z,61699.19
2023-04-25T06:34:46.642Z,61694.66
2023-04-25T06:39:50.688Z,61717.88
2023-04-25T06:44:53.257Z,61763.81
2023-04-25T06:49:55.839Z,62008.31
2023-04-25T06:55:00.388Z,62132.16
2023-04-25T07:00:06.280Z,62242.03
2023-04-25T07:05:09.449Z,62311.47
2023-04-25T07:10:13.332Z,62368.28
2023-04-25T07:15:16.020Z,62529.59
2023-04-25T07:20:18.615Z,62325.66
2023-04-25T07:25:22.549Z,62182.09
2023-04-25T07:30:25.403Z,62090.00
2023-04-25T07:35:28.146Z,62080.97
2023-04-25T07:40:32.258Z,62028.03
2023-04-25T07:45:34.869Z,62073.50
2023-04-25T07:50:37.522Z,62016.53
2023-04-25T07:55:41.783Z,62077.88
2023-04-25T08:00:44.369Z,62138.75
2023-04-25T08:05:47.795Z,62012.94
2023-04-25T08:10:51.871Z,61953.25
2023-04-25T08:15:54.467Z,61913.31
2023-04-25T08:20:57.167Z,61927.19
2023-04-25T08:26:01.159Z,61900.09
2023-04-25T08:31:03.988Z,61989.38
2023-04-25T08:36:06.897Z,62009.69
2023-04-25T08:41:13.830Z,61979.59
2023-04-25T08:46:20.264Z,61922.00
2023-04-25T08:51:25.538Z,61982.00
2023-04-25T08:56:31.131Z,61971.72
2023-04-25T09:01:34.017Z,62002.97
2023-04-25T09:06:37.217Z,62112.50
2023-04-25T09:11:41.658Z,62114.84
2023-04-25T09:17:09.157Z,62100.00
2023-04-25T09:22:11.802Z,62139.03
2023-04-25T09:27:21.388Z,62377.72
2023-04-25T09:32:25.671Z,62519.19
2023-04-25T09:37:30.523Z,62672.22
2023-04-25T09:42:35.732Z,62582.69
2023-04-25T09:47:39.795Z,62238.50
2023-04-25T09:52:42.660Z,62095.31
2023-04-25T09:57:52.381Z,61881.72
2023-04-25T10:02:56.531Z,61781.66
2023-04-25T10:08:00.183Z,61776.31
2023-04-25T10:13:04.217Z,61855.66
2023-04-25T10:18:08.428Z,61907.13
2023-04-25T10:23:17.973Z,61839.34
2023-04-25T10:28:22.337Z,61840.06
2023-04-25T10:33:34.231Z,61898.50
2023-04-25T10:38:37.882Z,62018.66
2023-04-25T10:43:43.118Z,62055.38
2023-04-25T10:48:49.206Z,62081.50
2023-04-25T10:54:02.704Z,62251.19
2023-04-25T10:59:09.502Z,62291.88
2023-04-25T11:04:23.444Z,62346.84
2023-04-25T11:09:27.432Z,62458.22
2023-04-25T11:14:31.367Z,62497.66
2023-04-25T11:19:33.982Z,62506.75
2023-04-25T11:24:37.941Z,62473.94
2023-04-25T11:29:43.041Z,62316.38
2023-04-25T11:34:47.107Z,62237.75
2023-04-25T11:39:49.864Z,62428.47
2023-04-25T11:44:56.626Z,62453.41
2023-04-25T11:50:00.624Z,62444.81
2023-04-25T11:55:03.307Z,62453.03
2023-04-25T12:00:15.848Z,62387.25
2023-04-25T12:05:32.068Z,62383.16
2023-04-25T12:10:39.437Z,62161.47
2023-04-25T12:15:43.735Z,62046.75
2023-04-25T12:20:46.496Z,62099.56
2023-04-25T12:25:49.022Z,62172.97
2023-04-25T12:31:01.653Z,62186.88
2023-04-25T12:36:09.742Z,62211.00
2023-04-25T12:41:12.494Z,62150.25
2023-04-25T12:46:16.502Z,62235.22
2023-04-25T12:51:19.179Z,62359.78
2023-04-25T12:56:23.617Z,62391.53
2023-04-25T13:01:29.459Z,62359.38
2023-04-25T13:06:32.380Z,62263.28
2023-04-25T13:11:34.979Z,62237.47
2023-04-25T13:16:39.088Z,62224.94
2023-04-25T13:21:42.739Z,62256.75
2023-04-25T13:26:45.812Z,62209.66
2023-04-25T13:31:49.788Z,62288.84
2023-04-25T13:36:52.396Z,62386.84
2023-04-25T13:41:55.041Z,62264.03
2023-04-25T13:46:59.099Z,62094.16
2023-04-25T13:52:02.737Z,62097.78
2023-04-25T13:57:06.255Z,62198.09
2023-04-25T14:02:10.246Z,62233.13
2023-04-25T14:07:12.945Z,62214.63
2023-04-25T14:12:15.657Z,62263.28
2023-04-25T14:17:19.873Z,62192.22
2023-04-25T14:22:22.435Z,62247.81
2023-04-25T14:27:26.185Z,62265.75
2023-04-25T14:32:33.088Z,62233.13
2023-04-25T14:37:35.738Z,62268.91
2023-04-25T14:42:38.558Z,62346.88
2023-04-25T14:47:42.865Z,62403.22
2023-04-25T14:52:46.904Z,62249.31
2023-04-25T14:57:49.463Z,62230.16
2023-04-25T15:02:53.721Z,62154.63
2023-04-25T15:07:56.692Z,62161.53
2023-04-25T15:12:59.374Z,62218.53
2023-04-25T15:18:03.372Z,62215.53
2023-04-25T15:23:06.586Z,62285.13
2023-04-25T15:28:09.557Z,62315.38
2023-04-25T15:33:14.345Z,62345.16
2023-04-25T15:38:16.973Z,62385.25
2023-04-25T15:43:19.515Z,62216.94
2023-04-25T15:48:23.506Z,62107.03
2023-04-25T15:53:26.153Z,62094.09
2023-04-25T15:58:28.760Z,62189.53
2023-04-25T16:03:36.361Z,62223.88
2023-04-25T16:08:39.347Z,62267.72
2023-04-25T16:13:41.958Z,62165.72
2023-04-25T16:18:45.846Z,62164.47
2023-04-25T16:23:48.563Z,62054.44
2023-04-25T16:28:51.225Z,62064.63
2023-04-25T16:33:55.168Z,62079.31
2023-04-25T16:38:57.735Z,61993.41
2023-04-25T16:44:00.317Z,61937.50
2023-04-25T16:49:04.352Z,62005.09
2023-04-25T16:54:06.957Z,61975.13
2023-04-25T16:59:09.574Z,62011.47
2023-04-25T17:04:13.574Z,61967.81
2023-04-25T17:09:16.271Z,61892.53
2023-04-25T17:14:18.871Z,61821.44
2023-04-25T17:19:22.846Z,61768.31
2023-04-25T17:24:25.500Z,61707.75
2023-04-25T17:29:28.136Z,61716.81
2023-04-25T17:34:32.063Z,61712.47
2023-04-25T17:39:34.666Z,61700.63
2023-04-25T17:44:37.306Z,61685.75
2023-04-25T17:49:41.396Z,61727.97
2023-04-25T17:54:43.989Z,61694.94
2023-04-25T17:59:46.610Z,61731.69
2023-04-25T18:04:50.642Z,61750.41
2023-04-25T18:09:53.307Z,61721.25
2023-04-25T18:14:55.935Z,61725.66
2023-04-25T18:20:01.744Z,61711.47
2023-04-25T18:25:05.718Z,61702.47
2023-04-25T18:30:10.623Z,61695.31
2023-04-25T18:35:14.612Z,61640.69
2023-04-25T18:40:17.304Z,61592.78
2023-04-25T18:45:20.094Z,61591.22
2023-04-25T18:50:26.326Z,61552.41
2023-04-25T18:55:29.901Z,61575.66
2023-04-25T19:00:32.606Z,61525.59
2023-04-25T19:05:36.569Z,61508.00
2023-04-25T19:10:39.129Z,61476.50
2023-04-25T19:15:42.678Z,61472.81
2023-04-25T19:20:46.613Z,61472.66
2023-04-25T19:25:49.245Z,61455.72
2023-04-25T19:30:52.298Z,61466.97
2023-04-25T19:35:56.225Z,61424.13
2023-04-25T19:40:58.860Z,61432.03
2023-04-25T19:46:01.405Z,61467.31
2023-04-25T19:51:05.884Z,61436.22
2023-04-25T19:56:09.700Z,61481.97
2023-04-25T20:01:12.340Z,61432.69
2023-04-25T20:06:16.339Z,61474.25
2023-04-25T20:11:18.997Z,61498.94
2023-04-25T20:16:21.997Z,61525.59
2023-04-25T20:21:27.404Z,61518.66
2023-04-25T20:26:33.784Z,61494.97
2023-04-25T20:31:37.127Z,61484.59
2023-04-25T20:36:41.078Z,61494.09
2023-04-25T20:41:44.757Z,61481.13
2023-04-25T20:46:48.012Z,61493.03
2023-04-25T20:51:52.451Z,61449.66
2023-04-25T20:56:55.839Z,61501.25
2023-04-25T21:01:59.549Z,61495.50
2023-04-25T21:07:03.586Z,61479.22
2023-04-25T21:12:06.940Z,61441.97
2023-04-25T21:17:09.602Z,61481.97
2023-04-25T21:22:13.659Z,61415.75
2023-04-25T21:27:18.966Z,61391.44
2023-04-25T21:32:22.212Z,61361.03
2023-04-25T21:37:26.169Z,61358.63
2023-04-25T21:42:28.818Z,61332.31
2023-04-25T21:47:31.739Z,61332.56
2023-04-25T21:52:36.897Z,61326.91
2023-04-25T21:57:39.505Z,61308.03
2023-04-25T22:02:42.211Z,61307.56
2023-04-25T22:07:46.210Z,61329.03
2023-04-25T22:12:50.790Z,61342.47
2023-04-25T22:17:55.260Z,61363.50
2023-04-25T22:22:59.578Z,61371.63
2023-04-25T22:28:02.110Z,61354.97
2023-04-25T22:33:04.833Z,61397.47
2023-04-25T22:38:08.778Z,61376.13
2023-04-25T22:43:12.262Z,61365.75
2023-04-25T22:48:15.898Z,61392.09
2023-04-25T22:53:19.668Z,61382.72
2023-04-25T22:58:22.264Z,61356.56
2023-04-25T23:03:25.005Z,61328.88
2023-04-25T23:08:29.103Z,61320.59
2023-04-25T23:13:34.058Z,61317.72
2023-04-25T23:18:37.302Z,61278.16
2023-04-25T23:23:41.214Z,61268.88
2023-04-25T23:28:45.113Z,61247.75
2023-04-25T23:33:47.667Z,61220.13
2023-04-25T23:38:52.471Z,61215.81
2023-04-25T23:43:56.162Z,61220.81
2023-04-25T23:48:59.009Z,61217.88
2023-04-25T23:54:05.217Z,61200.59
2023-04-25T23:59:08.950Z,61251.00
